Terminal Aerodrome Forecast
Issued by NWS

Home | Current Version | Previous Version | Graphics & Text | Print | Product List | Glossary On
Versions: 1 2 3 4 5 6 7 8 9 10 11 12 13 14
595
FTUS43 KMPX 191736
TAFRWF
TAF
KRWF 191736Z 1918/2018 18010KT P6SM SKC
     FM200500 17008KT P6SM BKN250
     FM201100 19006KT P6SM VCSH SCT045 BKN100
     FM201400 25007KT P6SM SCT045=

USA.gov is the U.S. government's official web portal to all federal, state and local government web resources and services.